sensor_id;sensor_type;location;lat;lon;timestamp;P1;durP1;ratioP1;P2;durP2;ratioP2
19446;SDS011;9862;49.462;11.054;2023-06-01T00:00:06;4.18;;;2.95;;
19446;SDS011;9862;49.462;11.054;2023-06-01T00:02:34;6.10;;;2.70;;
19446;SDS011;9862;49.462;11.054;2023-06-01T00:05:01;5.25;;;2.53;;
19446;SDS011;9862;49.462;11.054;2023-06-01T00:07:28;4.88;;;2.47;;
19446;SDS011;9862;49.462;11.054;2023-06-01T00:09:57;4.20;;;2.22;;
19446;SDS011;9862;49.462;11.054;2023-06-01T00:12:26;6.10;;;2.67;;
19446;SDS011;9862;49.462;11.054;2023-06-01T00:14:52;4.95;;;2.70;;
19446;SDS011;9862;49.462;11.054;2023-06-01T00:17:20;3.05;;;2.20;;
19446;SDS011;9862;49.462;11.054;2023-06-01T00:19:47;6.35;;;2.45;;
19446;SDS011;9862;49.462;11.054;2023-06-01T00:22:14;4.32;;;2.35;;
19446;SDS011;9862;49.462;11.054;2023-06-01T00:24:41;3.50;;;2.50;;
19446;SDS011;9862;49.462;11.054;2023-06-01T00:27:08;4.68;;;2.53;;
19446;SDS011;9862;49.462;11.054;2023-06-01T00:29:36;4.72;;;2.55;;
19446;SDS011;9862;49.462;11.054;2023-06-01T00:32:03;6.80;;;2.80;;
19446;SDS011;9862;49.462;11.054;2023-06-01T00:34:30;9.65;;;3.38;;
19446;SDS011;9862;49.462;11.054;2023-06-01T00:36:56;4.22;;;2.42;;
19446;SDS011;9862;49.462;11.054;2023-06-01T00:39:23;7.82;;;3.10;;
19446;SDS011;9862;49.462;11.054;2023-06-01T00:41:50;5.00;;;2.50;;
19446;SDS011;9862;49.462;11.054;2023-06-01T00:44:16;4.75;;;2.80;;
19446;SDS011;9862;49.462;11.054;2023-06-01T00:46:44;3.38;;;2.47;;
19446;SDS011;9862;49.462;11.054;2023-06-01T00:49:11;5.32;;;2.38;;
19446;SDS011;9862;49.462;11.054;2023-06-01T00:51:38;5.25;;;2.88;;
19446;SDS011;9862;49.462;11.054;2023-06-01T00:54:05;4.38;;;2.30;;
19446;SDS011;9862;49.462;11.054;2023-06-01T00:56:33;3.65;;;2.58;;
19446;SDS011;9862;49.462;11.054;2023-06-01T00:59:01;6.63;;;2.50;;
19446;SDS011;9862;49.462;11.054;2023-06-01T01:01:28;3.92;;;2.63;;
19446;SDS011;9862;49.462;11.054;2023-06-01T01:03:56;5.13;;;2.60;;
19446;SDS011;9862;49.462;11.054;2023-06-01T01:06:28;5.45;;;2.55;;
19446;SDS011;9862;49.462;11.054;2023-06-01T01:09:16;6.35;;;2.80;;
19446;SDS011;9862;49.462;11.054;2023-06-01T01:11:50;5.22;;;2.58;;
19446;SDS011;9862;49.462;11.054;2023-06-01T01:14:22;6.82;;;3.15;;
19446;SDS011;9862;49.462;11.054;2023-06-01T01:16:53;4.50;;;2.40;;
19446;SDS011;9862;49.462;11.054;2023-06-01T01:19:34;4.78;;;3.00;;
19446;SDS011;9862;49.462;11.054;2023-06-01T01:22:24;4.95;;;2.70;;
19446;SDS011;9862;49.462;11.054;2023-06-01T01:25:05;7.07;;;2.72;;
19446;SDS011;9862;49.462;11.054;2023-06-01T01:28:08;7.55;;;2.47;;
19446;SDS011;9862;49.462;11.054;2023-06-01T01:30:42;8.70;;;2.67;;
19446;SDS011;9862;49.462;11.054;2023-06-01T01:33:10;4.10;;;2.40;;
19446;SDS011;9862;49.462;11.054;2023-06-01T01:35:37;8.15;;;2.67;;
19446;SDS011;9862;49.462;11.054;2023-06-01T01:38:05;10.88;;;3.65;;
19446;SDS011;9862;49.462;11.054;2023-06-01T01:40:31;5.13;;;2.80;;
19446;SDS011;9862;49.462;11.054;2023-06-01T01:42:58;5.00;;;2.92;;
19446;SDS011;9862;49.462;11.054;2023-06-01T01:45:26;6.10;;;2.58;;
19446;SDS011;9862;49.462;11.054;2023-06-01T01:47:57;3.97;;;2.40;;
19446;SDS011;9862;49.462;11.054;2023-06-01T01:50:29;4.90;;;2.70;;
19446;SDS011;9862;49.462;11.054;2023-06-01T01:53:00;4.78;;;2.30;;
19446;SDS011;9862;49.462;11.054;2023-06-01T01:55:28;5.55;;;2.75;;
19446;SDS011;9862;49.462;11.054;2023-06-01T01:57:57;8.18;;;2.95;;
19446;SDS011;9862;49.462;11.054;2023-06-01T02:00:25;5.18;;;2.40;;
19446;SDS011;9862;49.462;11.054;2023-06-01T02:02:52;5.70;;;2.60;;
19446;SDS011;9862;49.462;11.054;2023-06-01T02:05:21;7.05;;;3.38;;
19446;SDS011;9862;49.462;11.054;2023-06-01T02:07:48;6.35;;;3.00;;
19446;SDS011;9862;49.462;11.054;2023-06-01T02:10:18;6.10;;;2.90;;
19446;SDS011;9862;49.462;11.054;2023-06-01T02:12:46;5.68;;;3.25;;
19446;SDS011;9862;49.462;11.054;2023-06-01T02:15:15;5.50;;;2.80;;
19446;SDS011;9862;49.462;11.054;2023-06-01T02:17:42;6.55;;;2.90;;
19446;SDS011;9862;49.462;11.054;2023-06-01T02:20:10;6.93;;;3.05;;
19446;SDS011;9862;49.462;11.054;2023-06-01T02:22:38;4.30;;;3.15;;
19446;SDS011;9862;49.462;11.054;2023-06-01T02:25:06;7.22;;;2.80;;
19446;SDS011;9862;49.462;11.054;2023-06-01T02:27:34;5.95;;;2.95;;
19446;SDS011;9862;49.462;11.054;2023-06-01T02:30:00;6.05;;;2.58;;
19446;SDS011;9862;49.462;11.054;2023-06-01T02:32:27;6.55;;;2.78;;
19446;SDS011;9862;49.462;11.054;2023-06-01T02:34:55;6.50;;;2.75;;
19446;SDS011;9862;49.462;11.054;2023-06-01T02:37:22;6.00;;;2.90;;
19446;SDS011;9862;49.462;11.054;2023-06-01T02:39:50;7.28;;;2.97;;
19446;SDS011;9862;49.462;11.054;2023-06-01T02:42:17;7.05;;;2.83;;
19446;SDS011;9862;49.462;11.054;2023-06-01T02:44:43;5.85;;;3.00;;
19446;SDS011;9862;49.462;11.054;2023-06-01T02:47:10;4.28;;;2.60;;
19446;SDS011;9862;49.462;11.054;2023-06-01T02:49:37;4.65;;;2.72;;
19446;SDS011;9862;49.462;11.054;2023-06-01T02:52:04;8.90;;;2.83;;
19446;SDS011;9862;49.462;11.054;2023-06-01T02:54:31;4.40;;;2.55;;
19446;SDS011;9862;49.462;11.054;2023-06-01T02:56:59;5.80;;;2.83;;
19446;SDS011;9862;49.462;11.054;2023-06-01T02:59:26;3.33;;;2.47;;
19446;SDS011;9862;49.462;11.054;2023-06-01T03:01:53;6.20;;;2.60;;
19446;SDS011;9862;49.462;11.054;2023-06-01T03:04:19;6.25;;;3.53;;
19446;SDS011;9862;49.462;11.054;2023-06-01T03:06:46;7.15;;;2.90;;
19446;SDS011;9862;49.462;11.054;2023-06-01T03:09:14;7.03;;;2.97;;
19446;SDS011;9862;49.462;11.054;2023-06-01T03:11:41;4.25;;;2.88;;
19446;SDS011;9862;49.462;11.054;2023-06-01T03:14:09;4.88;;;2.65;;
19446;SDS011;9862;49.462;11.054;2023-06-01T03:16:36;4.55;;;2.78;;
19446;SDS011;9862;49.462;11.054;2023-06-01T03:19:03;5.85;;;3.03;;
19446;SDS011;9862;49.462;11.054;2023-06-01T03:21:30;4.57;;;2.80;;
19446;SDS011;9862;49.462;11.054;2023-06-01T03:23:57;6.93;;;2.67;;
19446;SDS011;9862;49.462;11.054;2023-06-01T03:26:24;5.65;;;3.08;;
19446;SDS011;9862;49.462;11.054;2023-06-01T03:28:50;9.00;;;3.10;;
19446;SDS011;9862;49.462;11.054;2023-06-01T03:31:18;6.57;;;3.03;;
19446;SDS011;9862;49.462;11.054;2023-06-01T03:33:45;8.13;;;3.40;;
19446;SDS011;9862;49.462;11.054;2023-06-01T03:36:12;5.60;;;2.88;;
19446;SDS011;9862;49.462;11.054;2023-06-01T03:38:39;8.25;;;3.10;;
19446;SDS011;9862;49.462;11.054;2023-06-01T03:41:06;4.82;;;2.65;;
19446;SDS011;9862;49.462;11.054;2023-06-01T03:43:33;7.10;;;3.88;;
19446;SDS011;9862;49.462;11.054;2023-06-01T03:46:00;14.43;;;7.78;;
19446;SDS011;9862;49.462;11.054;2023-06-01T03:48:28;14.63;;;8.57;;
19446;SDS011;9862;49.462;11.054;2023-06-01T03:50:54;7.95;;;5.20;;
19446;SDS011;9862;49.462;11.054;2023-06-01T03:53:21;8.63;;;3.10;;
19446;SDS011;9862;49.462;11.054;2023-06-01T03:55:48;7.78;;;3.40;;
19446;SDS011;9862;49.462;11.054;2023-06-01T03:58:16;4.85;;;3.28;;
19446;SDS011;9862;49.462;11.054;2023-06-01T04:00:44;6.22;;;2.83;;
19446;SDS011;9862;49.462;11.054;2023-06-01T04:03:11;7.53;;;3.33;;
19446;SDS011;9862;49.462;11.054;2023-06-01T04:05:41;4.45;;;2.85;;
19446;SDS011;9862;49.462;11.054;2023-06-01T04:08:14;7.00;;;3.70;;
19446;SDS011;9862;49.462;11.054;2023-06-01T04:10:42;6.63;;;3.45;;
19446;SDS011;9862;49.462;11.054;2023-06-01T04:13:08;7.82;;;3.42;;
19446;SDS011;9862;49.462;11.054;2023-06-01T04:15:35;10.15;;;3.92;;
19446;SDS011;9862;49.462;11.054;2023-06-01T04:18:02;14.45;;;4.65;;
19446;SDS011;9862;49.462;11.054;2023-06-01T04:20:28;15.70;;;3.65;;
19446;SDS011;9862;49.462;11.054;2023-06-01T04:22:57;12.00;;;4.32;;
19446;SDS011;9862;49.462;11.054;2023-06-01T04:25:24;6.53;;;3.65;;
19446;SDS011;9862;49.462;11.054;2023-06-01T04:27:51;8.02;;;3.55;;
19446;SDS011;9862;49.462;11.054;2023-06-01T04:30:19;6.72;;;4.15;;
19446;SDS011;9862;49.462;11.054;2023-06-01T04:32:47;7.65;;;4.05;;
19446;SDS011;9862;49.462;11.054;2023-06-01T04:35:14;7.05;;;3.83;;
19446;SDS011;9862;49.462;11.054;2023-06-01T04:37:41;7.93;;;4.10;;
19446;SDS011;9862;49.462;11.054;2023-06-01T04:40:10;5.93;;;3.95;;
19446;SDS011;9862;49.462;11.054;2023-06-01T04:42:39;7.70;;;3.90;;
19446;SDS011;9862;49.462;11.054;2023-06-01T04:45:07;8.45;;;4.22;;
19446;SDS011;9862;49.462;11.054;2023-06-01T04:47:35;6.30;;;3.20;;
19446;SDS011;9862;49.462;11.054;2023-06-01T04:50:03;9.82;;;4.20;;
19446;SDS011;9862;49.462;11.054;2023-06-01T04:52:33;9.27;;;3.83;;
19446;SDS011;9862;49.462;11.054;2023-06-01T04:55:00;8.88;;;3.88;;
19446;SDS011;9862;49.462;11.054;2023-06-01T04:57:28;8.77;;;4.00;;
19446;SDS011;9862;49.462;11.054;2023-06-01T04:59:54;6.07;;;3.88;;
19446;SDS011;9862;49.462;11.054;2023-06-01T05:02:22;9.55;;;4.20;;
19446;SDS011;9862;49.462;11.054;2023-06-01T05:04:48;9.55;;;4.47;;
19446;SDS011;9862;49.462;11.054;2023-06-01T05:07:15;8.43;;;4.47;;
19446;SDS011;9862;49.462;11.054;2023-06-01T05:09:42;6.93;;;3.95;;
19446;SDS011;9862;49.462;11.054;2023-06-01T05:12:09;15.18;;;4.28;;
19446;SDS011;9862;49.462;11.054;2023-06-01T05:14:37;8.27;;;4.07;;
19446;SDS011;9862;49.462;11.054;2023-06-01T05:17:04;4.35;;;2.50;;
19446;SDS011;9862;49.462;11.054;2023-06-01T05:19:30;8.15;;;3.00;;
19446;SDS011;9862;49.462;11.054;2023-06-01T05:21:57;5.28;;;2.80;;
19446;SDS011;9862;49.462;11.054;2023-06-01T05:24:24;13.55;;;3.20;;
19446;SDS011;9862;49.462;11.054;2023-06-01T05:26:50;12.60;;;6.47;;
19446;SDS011;9862;49.462;11.054;2023-06-01T05:29:17;7.85;;;4.10;;
19446;SDS011;9862;49.462;11.054;2023-06-01T05:31:45;8.95;;;4.10;;
19446;SDS011;9862;49.462;11.054;2023-06-01T05:34:13;8.82;;;3.88;;
19446;SDS011;9862;49.462;11.054;2023-06-01T05:36:39;8.35;;;3.70;;
19446;SDS011;9862;49.462;11.054;2023-06-01T05:39:06;7.80;;;4.40;;
19446;SDS011;9862;49.462;11.054;2023-06-01T05:41:33;7.90;;;3.50;;
19446;SDS011;9862;49.462;11.054;2023-06-01T05:43:59;12.07;;;3.47;;
19446;SDS011;9862;49.462;11.054;2023-06-01T05:46:26;5.15;;;3.33;;
19446;SDS011;9862;49.462;11.054;2023-06-01T05:48:54;7.07;;;2.83;;
19446;SDS011;9862;49.462;11.054;2023-06-01T05:51:21;6.68;;;3.60;;
19446;SDS011;9862;49.462;11.054;2023-06-01T05:53:48;8.50;;;3.30;;
19446;SDS011;9862;49.462;11.054;2023-06-01T05:56:14;9.45;;;3.55;;
19446;SDS011;9862;49.462;11.054;2023-06-01T05:58:41;12.90;;;3.70;;
19446;SDS011;9862;49.462;11.054;2023-06-01T06:01:08;6.07;;;3.58;;
19446;SDS011;9862;49.462;11.054;2023-06-01T06:03:35;11.13;;;4.32;;
19446;SDS011;9862;49.462;11.054;2023-06-01T06:06:04;9.10;;;4.03;;
19446;SDS011;9862;49.462;11.054;2023-06-01T06:08:31;7.20;;;3.50;;
19446;SDS011;9862;49.462;11.054;2023-06-01T06:10:58;11.02;;;3.30;;
19446;SDS011;9862;49.462;11.054;2023-06-01T06:13:25;9.30;;;3.42;;
19446;SDS011;9862;49.462;11.054;2023-06-01T06:15:51;10.60;;;3.70;;
19446;SDS011;9862;49.462;11.054;2023-06-01T06:18:19;5.15;;;3.88;;
19446;SDS011;9862;49.462;11.054;2023-06-01T06:20:46;9.38;;;4.05;;
19446;SDS011;9862;49.462;11.054;2023-06-01T06:23:14;6.43;;;3.15;;
19446;SDS011;9862;49.462;11.054;2023-06-01T06:25:41;9.50;;;3.42;;
19446;SDS011;9862;49.462;11.054;2023-06-01T06:28:08;18.25;;;3.80;;
19446;SDS011;9862;49.462;11.054;2023-06-01T06:30:34;7.78;;;3.22;;
19446;SDS011;9862;49.462;11.054;2023-06-01T06:33:01;8.38;;;3.70;;
19446;SDS011;9862;49.462;11.054;2023-06-01T06:35:28;4.68;;;3.22;;
19446;SDS011;9862;49.462;11.054;2023-06-01T06:37:54;7.78;;;3.67;;
19446;SDS011;9862;49.462;11.054;2023-06-01T06:40:22;6.90;;;3.25;;
19446;SDS011;9862;49.462;11.054;2023-06-01T06:42:49;7.53;;;3.63;;
19446;SDS011;9862;49.462;11.054;2023-06-01T06:45:15;7.20;;;3.15;;
19446;SDS011;9862;49.462;11.054;2023-06-01T06:47:42;7.25;;;2.97;;
19446;SDS011;9862;49.462;11.054;2023-06-01T06:50:10;10.23;;;3.78;;
19446;SDS011;9862;49.462;11.054;2023-06-01T06:52:37;7.43;;;2.97;;
19446;SDS011;9862;49.462;11.054;2023-06-01T06:55:04;7.78;;;2.40;;
19446;SDS011;9862;49.462;11.054;2023-06-01T06:57:33;7.22;;;2.83;;
19446;SDS011;9862;49.462;11.054;2023-06-01T07:00:00;9.18;;;3.25;;
19446;SDS011;9862;49.462;11.054;2023-06-01T07:02:30;4.75;;;2.63;;
19446;SDS011;9862;49.462;11.054;2023-06-01T07:04:57;5.60;;;2.90;;
19446;SDS011;9862;49.462;11.054;2023-06-01T07:07:23;6.07;;;2.67;;
19446;SDS011;9862;49.462;11.054;2023-06-01T07:09:50;3.17;;;2.47;;
19446;SDS011;9862;49.462;11.054;2023-06-01T07:12:18;5.20;;;2.92;;
19446;SDS011;9862;49.462;11.054;2023-06-01T07:14:46;6.05;;;2.70;;
19446;SDS011;9862;49.462;11.054;2023-06-01T07:17:13;3.60;;;2.72;;
19446;SDS011;9862;49.462;11.054;2023-06-01T07:19:39;3.72;;;2.40;;
19446;SDS011;9862;49.462;11.054;2023-06-01T07:22:06;5.63;;;2.67;;
19446;SDS011;9862;49.462;11.054;2023-06-01T07:24:33;7.80;;;2.80;;
19446;SDS011;9862;49.462;11.054;2023-06-01T07:26:59;5.43;;;2.53;;
19446;SDS011;9862;49.462;11.054;2023-06-01T07:29:26;8.77;;;3.20;;
19446;SDS011;9862;49.462;11.054;2023-06-01T07:31:54;9.85;;;3.30;;
19446;SDS011;9862;49.462;11.054;2023-06-01T07:34:21;6.35;;;2.42;;
19446;SDS011;9862;49.462;11.054;2023-06-01T07:36:48;4.38;;;2.33;;
19446;SDS011;9862;49.462;11.054;2023-06-01T07:39:15;5.97;;;2.45;;
19446;SDS011;9862;49.462;11.054;2023-06-01T07:41:43;7.32;;;2.50;;
19446;SDS011;9862;49.462;11.054;2023-06-01T07:44:10;6.63;;;2.78;;
19446;SDS011;9862;49.462;11.054;2023-06-01T07:46:37;9.73;;;3.33;;
19446;SDS011;9862;49.462;11.054;2023-06-01T07:49:05;5.55;;;2.50;;
19446;SDS011;9862;49.462;11.054;2023-06-01T07:51:32;4.63;;;2.75;;
19446;SDS011;9862;49.462;11.054;2023-06-01T07:53:59;6.75;;;2.47;;
19446;SDS011;9862;49.462;11.054;2023-06-01T07:56:26;5.53;;;2.40;;
19446;SDS011;9862;49.462;11.054;2023-06-01T07:58:53;6.07;;;2.38;;
19446;SDS011;9862;49.462;11.054;2023-06-01T08:01:20;7.28;;;2.85;;
19446;SDS011;9862;49.462;11.054;2023-06-01T08:03:47;4.07;;;2.45;;
19446;SDS011;9862;49.462;11.054;2023-06-01T08:06:15;4.28;;;2.38;;
19446;SDS011;9862;49.462;11.054;2023-06-01T08:08:42;6.22;;;2.20;;
19446;SDS011;9862;49.462;11.054;2023-06-01T08:11:10;6.53;;;2.40;;
19446;SDS011;9862;49.462;11.054;2023-06-01T08:13:36;6.15;;;2.40;;
19446;SDS011;9862;49.462;11.054;2023-06-01T08:16:03;4.13;;;1.98;;
19446;SDS011;9862;49.462;11.054;2023-06-01T08:18:30;4.70;;;2.25;;
19446;SDS011;9862;49.462;11.054;2023-06-01T08:20:57;5.28;;;2.10;;
19446;SDS011;9862;49.462;11.054;2023-06-01T08:23:26;4.10;;;2.42;;
19446;SDS011;9862;49.462;11.054;2023-06-01T08:25:53;4.00;;;2.10;;
19446;SDS011;9862;49.462;11.054;2023-06-01T08:28:20;4.45;;;2.00;;
19446;SDS011;9862;49.462;11.054;2023-06-01T08:30:46;4.28;;;2.33;;
19446;SDS011;9862;49.462;11.054;2023-06-01T08:33:13;3.80;;;2.17;;
19446;SDS011;9862;49.462;11.054;2023-06-01T08:35:40;3.20;;;2.10;;
19446;SDS011;9862;49.462;11.054;2023-06-01T08:38:07;5.75;;;2.47;;
19446;SDS011;9862;49.462;11.054;2023-06-01T08:40:35;3.38;;;2.03;;
19446;SDS011;9862;49.462;11.054;2023-06-01T08:43:04;6.13;;;2.47;;
19446;SDS011;9862;49.462;11.054;2023-06-01T08:45:35;3.28;;;2.10;;
19446;SDS011;9862;49.462;11.054;2023-06-01T08:48:04;3.60;;;2.05;;
19446;SDS011;9862;49.462;11.054;2023-06-01T08:50:34;6.18;;;2.30;;
19446;SDS011;9862;49.462;11.054;2023-06-01T08:53:01;5.82;;;2.50;;
19446;SDS011;9862;49.462;11.054;2023-06-01T08:55:30;4.88;;;2.40;;
19446;SDS011;9862;49.462;11.054;2023-06-01T08:57:58;5.18;;;1.95;;
19446;SDS011;9862;49.462;11.054;2023-06-01T09:00:25;5.13;;;2.28;;
19446;SDS011;9862;49.462;11.054;2023-06-01T09:02:52;5.32;;;1.80;;
19446;SDS011;9862;49.462;11.054;2023-06-01T09:05:18;2.78;;;1.80;;
19446;SDS011;9862;49.462;11.054;2023-06-01T09:07:45;3.97;;;1.83;;
19446;SDS011;9862;49.462;11.054;2023-06-01T09:10:12;2.78;;;2.05;;
19446;SDS011;9862;49.462;11.054;2023-06-01T09:12:40;2.83;;;1.90;;
19446;SDS011;9862;49.462;11.054;2023-06-01T09:15:19;4.78;;;1.98;;
19446;SDS011;9862;49.462;11.054;2023-06-01T09:17:47;3.20;;;2.17;;
19446;SDS011;9862;49.462;11.054;2023-06-01T09:20:15;4.07;;;2.10;;
19446;SDS011;9862;49.462;11.054;2023-06-01T09:22:49;2.42;;;1.60;;
19446;SDS011;9862;49.462;11.054;2023-06-01T09:25:16;7.55;;;2.30;;
19446;SDS011;9862;49.462;11.054;2023-06-01T09:27:43;3.83;;;2.35;;
19446;SDS011;9862;49.462;11.054;2023-06-01T09:30:12;3.15;;;1.90;;
19446;SDS011;9862;49.462;11.054;2023-06-01T09:32:40;3.97;;;2.00;;
19446;SDS011;9862;49.462;11.054;2023-06-01T09:35:08;4.40;;;1.80;;
19446;SDS011;9862;49.462;11.054;2023-06-01T09:37:36;4.93;;;2.10;;
19446;SDS011;9862;49.462;11.054;2023-06-01T09:40:15;5.32;;;2.40;;
19446;SDS011;9862;49.462;11.054;2023-06-01T09:42:42;3.42;;;1.92;;
19446;SDS011;9862;49.462;11.054;2023-06-01T09:45:15;4.25;;;1.70;;
19446;SDS011;9862;49.462;11.054;2023-06-01T09:47:46;2.97;;;1.98;;
19446;SDS011;9862;49.462;11.054;2023-06-01T09:53:01;5.60;;;3.10;;
19446;SDS011;9862;49.462;11.054;2023-06-01T09:55:27;3.95;;;2.85;;
19446;SDS011;9862;49.462;11.054;2023-06-01T10:00:46;6.65;;;2.20;;
19446;SDS011;9862;49.462;11.054;2023-06-01T10:03:14;2.35;;;2.10;;
19446;SDS011;9862;49.462;11.054;2023-06-01T10:05:41;8.20;;;2.53;;
19446;SDS011;9862;49.462;11.054;2023-06-01T10:08:10;5.65;;;2.22;;
19446;SDS011;9862;49.462;11.054;2023-06-01T10:10:38;10.02;;;1.90;;
19446;SDS011;9862;49.462;11.054;2023-06-01T10:13:05;2.83;;;1.98;;
19446;SDS011;9862;49.462;11.054;2023-06-01T10:15:31;3.22;;;2.00;;
19446;SDS011;9862;49.462;11.054;2023-06-01T10:17:59;5.65;;;2.10;;
19446;SDS011;9862;49.462;11.054;2023-06-01T10:20:28;2.22;;;1.88;;
19446;SDS011;9862;49.462;11.054;2023-06-01T10:22:57;2.63;;;1.83;;
19446;SDS011;9862;49.462;11.054;2023-06-01T10:25:25;7.15;;;2.10;;
19446;SDS011;9862;49.462;11.054;2023-06-01T10:27:57;4.32;;;1.80;;
19446;SDS011;9862;49.462;11.054;2023-06-01T10:30:27;5.05;;;2.10;;
19446;SDS011;9862;49.462;11.054;2023-06-01T10:32:53;3.20;;;2.10;;
19446;SDS011;9862;49.462;11.054;2023-06-01T10:38:28;4.75;;;2.05;;
19446;SDS011;9862;49.462;11.054;2023-06-01T10:43:51;4.10;;;2.25;;
19446;SDS011;9862;49.462;11.054;2023-06-01T10:46:34;2.65;;;1.85;;
19446;SDS011;9862;49.462;11.054;2023-06-01T10:49:05;3.75;;;1.77;;
19446;SDS011;9862;49.462;11.054;2023-06-01T10:51:32;2.90;;;2.17;;
19446;SDS011;9862;49.462;11.054;2023-06-01T10:57:17;3.75;;;1.80;;
19446;SDS011;9862;49.462;11.054;2023-06-01T11:02:44;5.07;;;2.13;;
19446;SDS011;9862;49.462;11.054;2023-06-01T11:08:02;7.38;;;2.38;;
19446;SDS011;9862;49.462;11.054;2023-06-01T11:13:25;4.78;;;2.20;;
19446;SDS011;9862;49.462;11.054;2023-06-01T11:18:54;4.55;;;2.10;;
19446;SDS011;9862;49.462;11.054;2023-06-01T11:21:24;3.20;;;2.05;;
19446;SDS011;9862;49.462;11.054;2023-06-01T11:23:51;2.63;;;2.25;;
19446;SDS011;9862;49.462;11.054;2023-06-01T11:26:21;6.55;;;2.50;;
19446;SDS011;9862;49.462;11.054;2023-06-01T11:28:51;6.10;;;1.80;;
19446;SDS011;9862;49.462;11.054;2023-06-01T11:31:19;7.03;;;2.40;;
19446;SDS011;9862;49.462;11.054;2023-06-01T11:33:48;4.82;;;2.08;;
19446;SDS011;9862;49.462;11.054;2023-06-01T11:36:19;5.10;;;1.95;;
19446;SDS011;9862;49.462;11.054;2023-06-01T11:38:48;4.47;;;2.00;;
19446;SDS011;9862;49.462;11.054;2023-06-01T11:41:15;3.55;;;2.10;;
19446;SDS011;9862;49.462;11.054;2023-06-01T11:43:43;3.63;;;2.33;;
19446;SDS011;9862;49.462;11.054;2023-06-01T11:46:10;3.35;;;1.90;;
19446;SDS011;9862;49.462;11.054;2023-06-01T11:48:36;7.15;;;2.17;;
19446;SDS011;9862;49.462;11.054;2023-06-01T11:51:03;4.47;;;2.20;;
19446;SDS011;9862;49.462;11.054;2023-06-01T11:53:30;3.88;;;2.20;;
19446;SDS011;9862;49.462;11.054;2023-06-01T11:55:58;3.30;;;2.15;;
19446;SDS011;9862;49.462;11.054;2023-06-01T11:58:25;5.97;;;3.08;;
19446;SDS011;9862;49.462;11.054;2023-06-01T12:00:55;4.53;;;2.25;;
19446;SDS011;9862;49.462;11.054;2023-06-01T12:03:23;6.00;;;1.98;;
19446;SDS011;9862;49.462;11.054;2023-06-01T12:05:50;3.25;;;2.20;;
19446;SDS011;9862;49.462;11.054;2023-06-01T12:08:17;5.95;;;2.78;;
19446;SDS011;9862;49.462;11.054;2023-06-01T12:10:45;6.45;;;2.55;;
19446;SDS011;9862;49.462;11.054;2023-06-01T12:13:13;4.35;;;2.65;;
19446;SDS011;9862;49.462;11.054;2023-06-01T12:15:40;3.90;;;2.47;;
19446;SDS011;9862;49.462;11.054;2023-06-01T12:18:09;6.45;;;2.90;;
19446;SDS011;9862;49.462;11.054;2023-06-01T12:20:36;2.67;;;2.15;;
19446;SDS011;9862;49.462;11.054;2023-06-01T12:23:11;5.78;;;2.33;;
19446;SDS011;9862;49.462;11.054;2023-06-01T12:25:47;7.25;;;2.50;;
19446;SDS011;9862;49.462;11.054;2023-06-01T12:28:14;5.32;;;2.40;;
19446;SDS011;9862;49.462;11.054;2023-06-01T12:30:42;5.75;;;2.60;;
19446;SDS011;9862;49.462;11.054;2023-06-01T12:33:11;6.10;;;2.00;;
19446;SDS011;9862;49.462;11.054;2023-06-01T12:35:57;3.33;;;2.38;;
19446;SDS011;9862;49.462;11.054;2023-06-01T12:38:24;3.72;;;2.45;;
19446;SDS011;9862;49.462;11.054;2023-06-01T12:41:05;3.92;;;1.95;;
19446;SDS011;9862;49.462;11.054;2023-06-01T12:43:33;4.88;;;2.28;;
19446;SDS011;9862;49.462;11.054;2023-06-01T12:46:00;6.28;;;2.55;;
19446;SDS011;9862;49.462;11.054;2023-06-01T12:48:33;4.03;;;2.03;;
19446;SDS011;9862;49.462;11.054;2023-06-01T12:51:01;5.13;;;2.50;;
19446;SDS011;9862;49.462;11.054;2023-06-01T12:53:29;9.30;;;2.45;;
19446;SDS011;9862;49.462;11.054;2023-06-01T12:55:56;4.90;;;2.58;;
19446;SDS011;9862;49.462;11.054;2023-06-01T12:58:22;2.67;;;2.25;;
19446;SDS011;9862;49.462;11.054;2023-06-01T13:00:49;6.90;;;2.40;;
19446;SDS011;9862;49.462;11.054;2023-06-01T13:03:16;9.38;;;2.53;;
19446;SDS011;9862;49.462;11.054;2023-06-01T13:05:44;4.78;;;2.30;;
19446;SDS011;9862;49.462;11.054;2023-06-01T13:08:11;4.70;;;2.03;;
19446;SDS011;9862;49.462;11.054;2023-06-01T13:10:38;5.38;;;2.33;;
19446;SDS011;9862;49.462;11.054;2023-06-01T13:13:06;4.00;;;2.00;;
19446;SDS011;9862;49.462;11.054;2023-06-01T13:15:33;5.45;;;2.40;;
19446;SDS011;9862;49.462;11.054;2023-06-01T13:18:00;8.95;;;2.00;;
19446;SDS011;9862;49.462;11.054;2023-06-01T13:20:28;3.75;;;2.08;;
19446;SDS011;9862;49.462;11.054;2023-06-01T13:22:57;3.13;;;2.30;;
19446;SDS011;9862;49.462;11.054;2023-06-01T13:25:24;3.58;;;2.08;;
19446;SDS011;9862;49.462;11.054;2023-06-01T13:27:50;3.22;;;1.73;;
19446;SDS011;9862;49.462;11.054;2023-06-01T13:30:17;4.75;;;2.10;;
19446;SDS011;9862;49.462;11.054;2023-06-01T13:32:44;6.65;;;2.50;;
19446;SDS011;9862;49.462;11.054;2023-06-01T13:35:11;3.97;;;2.20;;
19446;SDS011;9862;49.462;11.054;2023-06-01T13:37:37;3.13;;;2.00;;
19446;SDS011;9862;49.462;11.054;2023-06-01T13:40:06;5.68;;;2.28;;
19446;SDS011;9862;49.462;11.054;2023-06-01T13:42:33;3.42;;;2.05;;
19446;SDS011;9862;49.462;11.054;2023-06-01T13:45:00;2.75;;;2.35;;
19446;SDS011;9862;49.462;11.054;2023-06-01T13:47:28;3.13;;;2.10;;
19446;SDS011;9862;49.462;11.054;2023-06-01T13:49:54;4.43;;;2.40;;
19446;SDS011;9862;49.462;11.054;2023-06-01T13:52:21;2.67;;;2.42;;
19446;SDS011;9862;49.462;11.054;2023-06-01T13:54:50;3.42;;;2.13;;
19446;SDS011;9862;49.462;11.054;2023-06-01T13:57:18;4.88;;;2.28;;
19446;SDS011;9862;49.462;11.054;2023-06-01T13:59:45;6.28;;;2.40;;
19446;SDS011;9862;49.462;11.054;2023-06-01T14:02:11;4.13;;;2.40;;
19446;SDS011;9862;49.462;11.054;2023-06-01T14:04:38;6.32;;;2.42;;
19446;SDS011;9862;49.462;11.054;2023-06-01T14:07:04;4.72;;;2.33;;
19446;SDS011;9862;49.462;11.054;2023-06-01T14:09:32;4.88;;;2.40;;
19446;SDS011;9862;49.462;11.054;2023-06-01T14:11:58;4.85;;;2.30;;
19446;SDS011;9862;49.462;11.054;2023-06-01T14:14:26;9.07;;;2.58;;
19446;SDS011;9862;49.462;11.054;2023-06-01T14:16:53;3.88;;;2.13;;
19446;SDS011;9862;49.462;11.054;2023-06-01T14:19:20;5.95;;;2.42;;
19446;SDS011;9862;49.462;11.054;2023-06-01T14:21:47;4.75;;;2.30;;
19446;SDS011;9862;49.462;11.054;2023-06-01T14:24:13;6.28;;;2.70;;
19446;SDS011;9862;49.462;11.054;2023-06-01T14:26:40;6.85;;;2.25;;
19446;SDS011;9862;49.462;11.054;2023-06-01T14:29:07;4.35;;;2.15;;
19446;SDS011;9862;49.462;11.054;2023-06-01T14:31:35;6.35;;;2.75;;
19446;SDS011;9862;49.462;11.054;2023-06-01T14:34:01;9.38;;;2.50;;
19446;SDS011;9862;49.462;11.054;2023-06-01T14:36:28;3.83;;;2.30;;
19446;SDS011;9862;49.462;11.054;2023-06-01T14:38:55;3.78;;;2.03;;
19446;SDS011;9862;49.462;11.054;2023-06-01T14:41:22;8.85;;;2.83;;
19446;SDS011;9862;49.462;11.054;2023-06-01T14:43:48;4.18;;;1.98;;
19446;SDS011;9862;49.462;11.054;2023-06-01T14:46:15;6.63;;;2.40;;
19446;SDS011;9862;49.462;11.054;2023-06-01T14:48:43;5.88;;;2.30;;
19446;SDS011;9862;49.462;11.054;2023-06-01T14:51:10;4.75;;;1.95;;
19446;SDS011;9862;49.462;11.054;2023-06-01T14:53:36;3.72;;;1.95;;
19446;SDS011;9862;49.462;11.054;2023-06-01T14:56:04;3.40;;;2.30;;
19446;SDS011;9862;49.462;11.054;2023-06-01T14:58:31;9.18;;;2.08;;
19446;SDS011;9862;49.462;11.054;2023-06-01T15:00:58;6.15;;;2.13;;
19446;SDS011;9862;49.462;11.054;2023-06-01T15:03:24;7.72;;;2.22;;
19446;SDS011;9862;49.462;11.054;2023-06-01T15:05:52;2.97;;;1.77;;
19446;SDS011;9862;49.462;11.054;2023-06-01T15:08:19;5.13;;;2.20;;
19446;SDS011;9862;49.462;11.054;2023-06-01T15:10:46;3.70;;;1.83;;
19446;SDS011;9862;49.462;11.054;2023-06-01T15:13:12;7.43;;;2.67;;
19446;SDS011;9862;49.462;11.054;2023-06-01T15:15:40;4.90;;;2.45;;
19446;SDS011;9862;49.462;11.054;2023-06-01T15:18:06;3.47;;;2.00;;